Time;durP1;ratioP1;P1;durP2;ratioP2;P2;SDS_P1;SDS_P2;PMS_P1;PMS_P2;Temp;Humidity;BMP_temperature;BMP_pressure;BME280_temperature;BME280_humidity;BME280_pressure;Samples;Min_cycle;Max_cycle;Signal;HPM_P1;HPM_P2
2022/11/10 00:01:54;;;;;;;;;33.00;31.67;;;;;12.17;100.00;99673.94;5029295;28;45542;-81
2022/11/10 00:04:19;;;;;;;;;30.33;28.67;;;;;12.21;100.00;99676.41;5033742;28;45558;-81
2022/11/10 00:06:46;;;;;;;;;36.33;32.00;;;;;12.28;100.00;99681.44;5028904;28;45424;-81
2022/11/10 00:09:12;;;;;;;;;33.67;29.33;;;;;12.32;100.00;99675.13;5025855;28;45377;-81
2022/11/10 00:11:38;;;;;;;;;28.00;23.33;;;;;12.34;100.00;99679.44;5027310;28;45347;-82
2022/11/10 00:16:59;;;;;;;;;35.67;31.00;;;;;12.39;100.00;99682.78;5025929;28;45295;-81
2022/11/10 00:19:25;;;;;;;;;34.00;31.33;;;;;12.42;100.00;99673.84;5032882;28;45410;-81
2022/11/10 00:21:51;;;;;;;;;41.00;33.67;;;;;12.42;100.00;99680.00;5043386;28;45320;-81
2022/11/10 00:24:17;;;;;;;;;32.67;31.33;;;;;12.42;100.00;99676.50;5050644;28;46761;-82
2022/11/10 00:26:43;;;;;;;;;40.00;34.00;;;;;12.42;100.00;99681.78;5039100;28;45448;-81
2022/11/10 00:29:08;;;;;;;;;39.67;35.00;;;;;12.42;100.00;99679.13;5034003;28;45409;-81
2022/11/10 00:31:36;;;;;;;;;36.33;32.33;;;;;12.40;100.00;99681.00;5035492;28;45385;-81
2022/11/10 00:34:02;;;;;;;;;35.00;32.00;;;;;12.38;100.00;99682.84;5034907;28;45579;-81
2022/11/10 00:36:27;;;;;;;;;31.67;28.00;;;;;12.36;100.00;99690.84;5035116;28;45477;-81
2022/11/10 00:38:52;;;;;;;;;31.67;28.67;;;;;12.33;100.00;99690.94;5034862;28;45319;-81
2022/11/10 00:41:18;;;;;;;;;38.33;33.00;;;;;12.31;100.00;99691.91;5034684;28;45397;-81
2022/11/10 00:43:44;;;;;;;;;38.00;33.00;;;;;12.29;100.00;99691.09;5041093;28;45321;-81
2022/11/10 00:46:09;;;;;;;;;35.33;30.67;;;;;12.29;100.00;99696.41;5031168;28;45252;-81
2022/11/10 00:48:34;;;;;;;;;35.33;31.00;;;;;12.26;100.00;99693.84;5028578;28;45259;-81
2022/11/10 00:51:00;;;;;;;;;30.33;28.67;;;;;12.23;100.00;99702.78;5024177;28;45628;-80
2022/11/10 00:53:25;;;;;;;;;27.00;21.33;;;;;12.20;100.00;99703.78;5026065;28;45395;-81
2022/11/10 00:55:50;;;;;;;;;22.00;21.33;;;;;12.17;99.29;99697.72;5041726;28;45464;-80
2022/11/10 00:58:16;;;;;;;;;17.50;16.00;;;;;12.13;99.20;99704.91;5035737;28;45509;-81
2022/11/10 01:00:42;;;;;;;;;16.50;16.50;;;;;12.10;99.18;99714.72;5036853;28;45524;-80
2022/11/10 01:03:12;;;;;;;;;18.00;17.00;;;;;12.07;99.34;99720.09;5023498;28;45418;-80
2022/11/10 01:05:38;;;;;;;;;14.75;14.75;;;;;12.04;98.84;99720.25;5045709;28;45373;-80
2022/11/10 01:08:04;;;;;;;;;18.50;15.00;;;;;12.05;99.44;99721.97;5040035;28;45321;-80
2022/11/10 01:10:29;;;;;;;;;24.00;19.25;;;;;12.02;99.34;99728.22;5034286;28;45535;-81
2022/11/10 01:12:54;;;;;;;;;20.00;20.00;;;;;12.00;99.90;99732.69;5033279;28;46413;-81
2022/11/10 01:15:20;;;;;;;;;19.75;17.75;;;;;12.01;99.73;99738.84;5027352;28;45330;-81
2022/11/10 01:17:46;;;;;;;;;19.25;18.00;;;;;12.01;100.00;99739.72;5033654;28;45375;-81
2022/11/10 01:20:11;;;;;;;;;24.00;23.00;;;;;12.03;100.00;99744.94;5033904;28;45450;-82
2022/11/10 01:22:37;;;;;;;;;28.33;23.33;;;;;12.02;100.00;99741.44;5032849;28;45494;-81
2022/11/10 01:25:03;;;;;;;;;30.00;27.67;;;;;12.04;100.00;99749.31;5041160;28;45456;-81
2022/11/10 01:27:28;;;;;;;;;21.33;19.67;;;;;12.06;100.00;99747.50;5046055;28;45602;-81
2022/11/10 01:29:54;;;;;;;;;25.67;23.00;;;;;12.10;100.00;99754.34;5031159;28;45651;-81
2022/11/10 01:32:19;;;;;;;;;24.00;21.00;;;;;12.12;99.22;99748.09;5036603;28;45438;-81
2022/11/10 01:34:45;;;;;;;;;25.67;22.00;;;;;12.15;98.81;99747.13;5023674;28;45409;-81
2022/11/10 01:37:11;;;;;;;;;22.33;22.00;;;;;12.19;98.88;99746.13;5035608;28;45315;-81
2022/11/10 01:39:36;;;;;;;;;29.67;27.00;;;;;12.22;99.14;99738.94;5035600;28;45614;-81
2022/11/10 01:42:03;;;;;;;;;25.33;22.33;;;;;12.26;98.80;99746.72;5033629;28;46350;-81
2022/11/10 01:44:28;;;;;;;;;29.67;25.33;;;;;12.30;98.88;99749.22;5032600;28;45424;-81
2022/11/10 01:46:54;;;;;;;;;27.67;23.67;;;;;12.33;98.47;99751.75;5032190;28;45888;-81
2022/11/10 01:49:23;;;;;;;;;26.67;25.33;;;;;12.37;98.45;99760.44;5031020;28;45469;-81
2022/11/10 01:52:08;;;;;;;;;27.67;23.33;;;;;12.39;98.30;99755.97;5034501;28;46250;-81
2022/11/10 01:54:39;;;;;;;;;24.67;22.67;;;;;12.42;98.16;99750.53;5041734;28;45451;-81
2022/11/10 01:57:08;;;;;;;;;28.00;25.33;;;;;12.44;97.97;99757.50;5028149;28;45495;-81
2022/11/10 01:59:39;;;;;;;;;29.00;26.00;;;;;12.45;97.85;99750.41;5025579;28;45491;-81
2022/11/10 02:02:19;;;;;;;;;27.00;24.00;;;;;12.46;97.67;99749.50;5019771;28;46596;-81
2022/11/10 02:04:46;;;;;;;;;23.33;23.33;;;;;12.48;97.39;99747.66;5024924;28;45480;-81
2022/11/10 02:07:11;;;;;;;;;30.67;27.00;;;;;12.47;97.43;99752.09;5027779;28;45434;-81
2022/11/10 02:09:37;;;;;;;;;25.00;23.67;;;;;12.45;97.16;99748.63;5021062;28;45381;-81
2022/11/10 02:12:03;;;;;;;;;24.50;21.50;;;;;12.45;96.99;99748.63;5035551;28;45453;-81
2022/11/10 02:14:28;;;;;;;;;22.00;22.00;;;;;12.42;96.65;99750.53;5022243;28;45978;-81
2022/11/10 02:16:54;;;;;;;;;23.00;21.00;;;;;12.36;96.62;99751.66;5035683;28;45365;-81
2022/11/10 02:19:22;;;;;;;;;26.00;23.00;;;;;12.31;96.98;99756.22;5034133;28;45574;-81
2022/11/10 02:21:47;;;;;;;;;23.33;22.00;;;;;12.27;97.14;99756.41;5035585;28;45420;-81
2022/11/10 02:24:14;;;;;;;;;26.67;23.00;;;;;12.23;97.23;99760.97;5038921;28;45398;-81
2022/11/10 02:26:45;;;;;;;;;21.33;19.00;;;;;12.21;96.93;99760.16;5055084;28;45404;-81
2022/11/10 02:29:11;;;;;;;;;26.67;21.67;;;;;12.19;97.17;99762.84;5046917;28;45243;-81
2022/11/10 02:31:37;;;;;;;;;21.00;20.00;;;;;12.17;97.70;99764.66;5046179;28;45402;-81
2022/11/10 02:34:02;;;;;;;;;26.67;21.00;;;;;12.14;97.37;99762.13;5036620;28;45381;-81
2022/11/10 02:36:28;;;;;;;;;25.67;24.00;;;;;12.12;97.42;99768.38;5032727;28;45416;-81
2022/11/10 02:38:53;;;;;;;;;25.33;22.67;;;;;12.08;97.37;99772.91;5030382;28;45544;-81
2022/11/10 02:41:19;;;;;;;;;22.00;20.00;;;;;12.05;97.62;99775.69;5024635;28;46284;-81
2022/11/10 02:43:44;;;;;;;;;30.33;23.67;;;;;12.02;97.97;99773.16;5017879;28;45402;-82
2022/11/10 02:46:10;;;;;;;;;24.33;22.33;;;;;12.01;97.62;99775.84;5021623;28;45554;-81
2022/11/10 02:48:35;;;;;;;;;28.67;26.00;;;;;12.00;97.88;99774.97;5046683;28;45435;-82
2022/11/10 02:51:01;;;;;;;;;26.33;23.33;;;;;11.99;97.84;99781.19;5041056;28;46262;-81
2022/11/10 02:53:26;;;;;;;;;26.00;19.00;;;;;11.98;97.93;99779.47;5034736;28;45502;-81
2022/11/10 02:55:51;;;;;;;;;26.00;24.00;;;;;11.95;98.30;99779.56;5033059;28;45516;-81
2022/11/10 02:58:17;;;;;;;;;25.33;22.00;;;;;11.94;98.02;99772.53;5043437;28;45490;-81
2022/11/10 03:00:42;;;;;;;;;23.67;21.00;;;;;11.93;97.77;99770.81;5030575;28;47593;-81
2022/11/10 03:03:07;;;;;;;;;18.00;17.00;;;;;11.93;97.97;99781.38;5026207;28;45425;-81
2022/11/10 03:05:33;;;;;;;;;23.33;21.33;;;;;11.93;97.86;99786.66;5030949;28;45334;-81
2022/11/10 03:08:01;;;;;;;;;19.67;18.67;;;;;11.95;97.95;99789.25;5021538;28;45460;-82
2022/11/10 03:10:28;;;;;;;;;18.67;18.67;;;;;11.94;97.75;99785.75;5034304;28;45624;-81
2022/11/10 03:12:55;;;;;;;;;24.50;21.75;;;;;11.96;97.77;99783.94;5020708;28;45429;-81
2022/11/10 03:15:21;;;;;;;;;23.00;20.67;;;;;11.97;97.77;99784.78;5017886;28;45630;-81
2022/11/10 03:17:46;;;;;;;;;24.67;21.00;;;;;11.98;97.38;99783.88;5030951;28;45373;-81
2022/11/10 03:20:12;;;;;;;;;22.67;20.00;;;;;11.96;97.43;99786.56;5034879;28;45473;-81
2022/11/10 03:22:37;;;;;;;;;25.33;23.00;;;;;11.96;97.47;99783.94;5042620;28;45413;-81
2022/11/10 03:25:03;;;;;;;;;23.33;21.33;;;;;11.94;97.46;99775.19;5036652;28;45491;-81
2022/11/10 03:27:29;;;;;;;;;21.00;19.67;;;;;11.95;97.51;99784.84;5033940;28;45477;-81
2022/11/10 03:29:54;;;;;;;;;22.00;20.00;;;;;11.94;97.22;99785.75;5043351;28;46280;-81
2022/11/10 03:32:19;;;;;;;;;22.67;20.67;;;;;11.93;97.25;99789.31;5028185;28;45636;-81
2022/11/10 03:34:45;;;;;;;;;23.33;22.00;;;;;11.93;97.25;99791.97;5033198;28;45670;-81
2022/11/10 03:37:10;;;;;;;;;25.00;21.33;;;;;11.91;97.24;99807.00;5037478;28;45408;-81
2022/11/10 03:39:36;;;;;;;;;27.00;23.67;;;;;11.89;96.98;99808.84;5033763;28;46447;-81
2022/11/10 03:42:01;;;;;;;;;27.00;21.00;;;;;11.88;97.17;99809.78;5020476;28;45338;-81
2022/11/10 03:44:26;;;;;;;;;26.00;24.00;;;;;11.85;97.05;99809.88;5015890;28;45441;-81
2022/11/10 03:46:52;;;;;;;;;26.33;25.33;;;;;11.84;97.27;99811.66;5029693;28;45270;-81
2022/11/10 03:49:17;;;;;;;;;29.00;25.33;;;;;11.82;97.21;99813.47;5041607;28;46442;-81
2022/11/10 03:51:42;;;;;;;;;28.67;23.67;;;;;11.79;97.26;99815.34;5033651;28;45523;-81
2022/11/10 03:54:08;;;;;;;;;29.33;26.00;;;;;11.77;97.27;99823.31;5036774;28;45311;-81
2022/11/10 03:56:33;;;;;;;;;29.33;28.00;;;;;11.75;97.27;99821.59;5034955;28;45494;-81
2022/11/10 03:58:58;;;;;;;;;23.67;21.67;;;;;11.70;97.21;99829.72;5028452;28;46291;-81
2022/11/10 04:01:24;;;;;;;;;23.00;20.00;;;;;11.71;97.37;99831.44;5030807;28;45465;-81
2022/11/10 04:03:49;;;;;;;;;23.33;18.00;;;;;11.71;97.30;99834.09;5023047;28;45254;-81
2022/11/10 04:08:59;;;;;;;;;22.00;18.50;;;;;11.65;97.77;99838.69;5020965;28;45826;-81
2022/11/10 04:16:54;;;;;;;;;19.25;19.25;;;;;11.66;97.99;99843.06;5018412;28;45513;-81
2022/11/10 04:19:20;;;;;;;;;19.33;18.33;;;;;11.67;98.08;99839.50;5028399;28;45548;-80
2022/11/10 04:21:45;;;;;;;;;14.75;12.50;;;;;11.69;98.40;99840.31;5017815;28;45410;-81
2022/11/10 04:24:11;;;;;;;;;21.33;19.67;;;;;11.69;97.68;99842.97;5027683;28;45362;-81
2022/11/10 04:26:37;;;;;;;;;22.00;21.33;;;;;11.67;97.27;99842.16;5033195;28;45415;-81
2022/11/10 04:29:05;;;;;;;;;19.00;17.33;;;;;11.66;97.33;99840.41;5043161;28;45636;-81
2022/11/10 04:31:32;;;;;;;;;16.50;15.75;;;;;11.66;97.78;99845.69;5030502;28;45432;-81
2022/11/10 04:33:58;;;;;;;;;21.25;19.25;;;;;11.67;97.67;99855.34;5047860;28;45453;-81
2022/11/10 04:36:30;;;;;;;;;21.00;17.00;;;;;11.67;98.20;99858.88;5045116;28;45535;-81
2022/11/10 04:38:55;;;;;;;;;18.00;18.00;;;;;11.66;98.21;99861.56;5038286;28;46351;-81
2022/11/10 04:41:22;;;;;;;;;18.00;17.50;;;;;11.65;98.48;99857.19;5039337;28;45162;-81
2022/11/10 04:43:48;;;;;;;;;20.33;19.67;;;;;11.67;98.52;99863.28;5027827;28;45453;-81
2022/11/10 04:46:30;;;;;;;;;19.25;18.00;;;;;11.69;98.22;99866.75;5027645;28;45575;-81
2022/11/10 04:48:57;;;;;;;;;14.50;11.00;;;;;11.67;98.08;99868.56;5026388;28;45402;-81
2022/11/10 04:51:29;;;;;;;;;15.50;13.25;;;;;11.65;97.27;99862.47;5039446;28;45601;-81
2022/11/10 04:53:54;;;;;;;;;11.25;11.25;;;;;11.63;97.45;99864.28;5032923;28;45386;-81
2022/11/10 04:56:23;;;;;;;;;12.00;11.25;;;;;11.62;97.86;99867.84;5033567;28;45393;-80
2022/11/10 04:58:48;;;;;;;;;11.25;11.00;;;;;11.65;97.62;99867.75;5036041;28;46205;-81
2022/11/10 05:01:19;;;;;;;;;13.75;13.75;;;;;11.70;97.99;99873.75;5036409;28;45377;-80
2022/11/10 05:03:46;;;;;;;;;17.00;15.50;;;;;11.72;98.29;99870.16;5040412;28;45303;-81
2022/11/10 05:06:11;;;;;;;;;18.75;17.75;;;;;11.76;97.58;99873.56;5049524;28;45450;-81
2022/11/10 05:08:38;;;;;;;;;12.25;10.50;;;;;11.78;97.88;99874.38;5030098;28;46308;-80
2022/11/10 05:11:04;;;;;;;;;18.00;16.25;;;;;11.79;98.00;99878.75;5034265;28;45480;-82
2022/11/10 05:13:30;;;;;;;;;21.50;16.50;;;;;11.80;97.95;99880.47;5026923;28;45612;-80
2022/11/10 05:15:56;;;;;;;;;17.25;16.00;;;;;11.82;98.17;99879.53;5025010;28;45314;-83
2022/11/10 05:18:21;;;;;;;;;17.00;17.00;;;;;11.86;98.38;99885.56;5018254;28;45728;-80
2022/11/10 05:20:46;;;;;;;;;25.00;19.33;;;;;11.88;98.40;99895.19;5028281;28;45593;-82
2022/11/10 05:25:56;;;;;;;;;18.50;16.50;;;;;11.91;98.10;99896.84;5035896;28;45427;-80
2022/11/10 05:28:21;;;;;;;;;19.67;18.67;;;;;11.91;97.67;99886.25;5043540;28;47013;-82
2022/11/10 05:30:47;;;;;;;;;17.33;17.00;;;;;11.92;97.36;99889.78;5030488;28;45385;-81
2022/11/10 05:33:12;;;;;;;;;18.75;18.25;;;;;11.93;96.71;99889.72;5035698;28;45505;-81
2022/11/10 05:35:38;;;;;;;;;22.33;21.00;;;;;11.93;96.43;99892.38;5037719;28;45375;-80
2022/11/10 05:38:05;;;;;;;;;17.75;15.75;;;;;11.90;95.90;99897.75;5033961;28;46650;-80
2022/11/10 05:40:31;;;;;;;;;19.50;17.50;;;;;11.90;95.87;99897.75;5023262;28;45416;-83
2022/11/10 05:42:57;;;;;;;;;18.00;17.33;;;;;11.91;95.91;99901.25;5044910;28;45234;-83
2022/11/10 05:45:25;;;;;;;;;17.00;16.00;;;;;11.91;95.90;99907.41;5036984;28;45615;-83
2022/11/10 05:47:51;;;;;;;;;20.50;18.50;;;;;11.92;95.96;99903.84;5034022;28;47552;-83
2022/11/10 05:50:17;;;;;;;;;22.25;21.75;;;;;11.92;95.94;99909.13;5026902;28;45482;-83
2022/11/10 05:52:46;;;;;;;;;20.33;18.33;;;;;11.96;96.00;99915.19;5033151;28;45561;-82
2022/11/10 05:55:13;;;;;;;;;25.00;22.33;;;;;11.97;96.17;99922.19;5029641;28;45420;-82
2022/11/10 05:57:42;;;;;;;;;23.00;22.00;;;;;11.97;96.22;99920.44;5028454;28;46141;-83
2022/11/10 06:00:09;;;;;;;;;21.00;20.33;;;;;11.98;96.21;99918.66;5030456;28;45463;-80
2022/11/10 06:02:34;;;;;;;;;22.75;20.00;;;;;12.00;96.41;99922.09;5024744;28;45382;-82
2022/11/10 06:04:59;;;;;;;;;17.25;15.25;;;;;12.01;96.07;99926.47;5025352;28;45235;-83
2022/11/10 06:07:25;;;;;;;;;20.00;19.00;;;;;12.04;95.71;99931.66;5032385;28;46606;-83
2022/11/10 06:09:50;;;;;;;;;14.00;11.75;;;;;12.04;95.89;99926.38;5032199;28;45362;-83
2022/11/10 06:12:16;;;;;;;;;23.00;19.00;;;;;12.05;95.77;99939.56;5015232;28;45931;-80
2022/11/10 06:14:41;;;;;;;;;24.33;21.00;;;;;12.05;95.46;99931.63;5030762;28;45466;-82
2022/11/10 06:17:06;;;;;;;;;16.75;16.75;;;;;12.07;95.27;99939.47;5033715;28;45443;-81
2022/11/10 06:19:32;;;;;;;;;26.67;23.33;;;;;12.08;95.47;99936.78;5029808;28;45442;-83
2022/11/10 06:21:57;;;;;;;;;16.67;16.33;;;;;12.11;95.29;99946.38;5034603;28;45892;-82
2022/11/10 06:24:22;;;;;;;;;21.00;19.00;;;;;12.09;95.00;99935.88;5027887;28;45607;-81
2022/11/10 06:26:48;;;;;;;;;22.00;21.00;;;;;12.09;94.63;99938.50;5028927;28;46144;-81
2022/11/10 06:29:13;;;;;;;;;19.00;19.00;;;;;12.10;94.70;99934.09;5028188;28;45339;-80
2022/11/10 06:31:39;;;;;;;;;20.33;16.33;;;;;12.09;94.73;99943.78;5034111;28;45474;-81
2022/11/10 06:34:04;;;;;;;;;27.00;25.33;;;;;12.08;94.26;99944.72;5039241;28;46590;-81
2022/11/10 06:36:29;;;;;;;;;25.00;23.33;;;;;12.08;94.79;99946.50;5033895;28;46275;-80
2022/11/10 06:38:55;;;;;;;;;26.33;22.00;;;;;12.07;95.22;99940.34;5020137;28;45424;-80
2022/11/10 06:41:20;;;;;;;;;26.67;25.00;;;;;12.09;94.84;99946.44;5020436;28;45338;-80
2022/11/10 06:43:45;;;;;;;;;25.67;24.33;;;;;12.09;95.25;99953.50;5028430;28;45517;-65
2022/11/10 06:46:11;;;;;;;;;23.67;22.67;;;;;12.15;95.07;99959.47;5044386;28;48268;-65
2022/11/10 06:48:37;;;;;;;;;23.00;21.00;;;;;12.20;95.22;99965.47;5033845;28;45424;-65
2022/11/10 06:51:03;;;;;;;;;24.25;23.50;;;;;12.27;95.03;99967.88;5030781;28;45492;-65
2022/11/10 06:53:28;;;;;;;;;21.00;20.67;;;;;12.31;94.19;99972.16;5030735;28;45490;-65
2022/11/10 06:55:53;;;;;;;;;23.33;19.33;;;;;12.36;94.15;99973.75;5032391;28;45497;-65
2022/11/10 06:58:19;;;;;;;;;21.33;18.67;;;;;12.40;94.05;99982.47;5029644;28;45361;-65
2022/11/10 07:00:44;;;;;;;;;22.67;21.00;;;;;12.41;93.33;99982.38;5033002;28;45548;-65
2022/11/10 07:03:12;;;;;;;;;19.00;19.00;;;;;12.43;93.00;99983.19;5032957;28;45426;-65
2022/11/10 07:05:38;;;;;;;;;25.67;21.67;;;;;12.41;93.36;99985.03;5032369;28;46141;-65
2022/11/10 07:08:14;;;;;;;;;23.67;21.00;;;;;12.42;93.21;99994.69;5033099;28;45536;-65
2022/11/10 07:10:40;;;;;;;;;22.25;17.00;;;;;12.43;92.60;99999.06;5028908;28;45407;-65
2022/11/10 07:13:06;;;;;;;;;10.00;8.33;;;;;12.44;92.55;100000.78;5033007;28;45442;-65
2022/11/10 07:15:32;;;;;;;;;22.75;21.50;;;;;12.43;92.58;100009.63;5032894;28;46270;-65
2022/11/10 07:17:57;;;;;;;;;19.00;16.00;;;;;12.44;92.73;100007.84;5027986;28;45527;-65
2022/11/10 07:20:24;;;;;;;;;18.33;16.67;;;;;12.43;92.67;100007.00;5020961;28;45425;-65
2022/11/10 07:22:56;;;;;;;;;18.33;17.00;;;;;12.44;92.21;100011.38;5032210;28;45436;-66
2022/11/10 07:25:21;;;;;;;;;24.33;22.67;;;;;12.43;92.15;100020.22;5031109;28;45465;-66
2022/11/10 07:27:52;;;;;;;;;21.75;20.75;;;;;12.44;92.21;100019.31;5030414;28;45368;-66
2022/11/10 07:30:18;;;;;;;;;24.00;21.33;;;;;12.44;92.37;100031.66;5032474;28;45556;-65
2022/11/10 07:32:43;;;;;;;;;21.67;21.67;;;;;12.46;92.04;100033.34;5031028;28;45355;-66
2022/11/10 07:35:09;;;;;;;;;23.33;20.67;;;;;12.47;91.98;100028.91;5041490;28;46481;-66
2022/11/10 07:37:34;;;;;;;;;24.00;24.00;;;;;12.47;92.19;100020.97;5033245;28;45397;-66
2022/11/10 07:39:59;;;;;;;;;25.00;19.33;;;;;12.49;91.87;100035.03;5032774;28;46022;-66
2022/11/10 07:42:25;;;;;;;;;21.75;20.00;;;;;12.49;92.11;100035.88;5032026;28;45523;-66
2022/11/10 07:44:50;;;;;;;;;23.67;21.33;;;;;12.51;92.10;100042.00;5031410;28;46076;-66
2022/11/10 07:47:16;;;;;;;;;28.67;26.67;;;;;12.54;92.19;100051.63;5031806;28;45370;-65
2022/11/10 07:49:41;;;;;;;;;28.00;24.67;;;;;12.58;92.27;100047.94;5031669;28;45545;-66
2022/11/10 07:52:06;;;;;;;;;27.00;24.75;;;;;12.62;91.82;100057.50;5033108;28;45397;-66
2022/11/10 07:54:32;;;;;;;;;20.67;18.67;;;;;12.64;91.73;100065.38;5039517;28;45375;-65
2022/11/10 07:56:57;;;;;;;;;20.33;18.67;;;;;12.62;91.56;100062.78;5031557;28;45538;-66
2022/11/10 07:59:22;;;;;;;;;22.67;21.00;;;;;12.63;91.57;100069.81;5032750;28;45496;-65
2022/11/10 08:01:48;;;;;;;;;21.00;19.00;;;;;12.66;91.71;100071.50;5028401;28;45586;-65
2022/11/10 08:04:13;;;;;;;;;19.50;16.75;;;;;12.67;91.53;100075.88;5032774;28;45440;-65
2022/11/10 08:06:38;;;;;;;;;21.25;19.50;;;;;12.67;91.09;100066.16;5035546;28;45416;-65
2022/11/10 08:09:04;;;;;;;;;23.50;22.50;;;;;12.69;91.23;100063.47;5035047;28;45470;-66
2022/11/10 08:11:29;;;;;;;;;25.00;22.33;;;;;12.74;91.46;100058.84;5033970;28;45515;-66
2022/11/10 08:13:54;;;;;;;;;23.67;22.00;;;;;12.79;90.61;100062.22;5030133;28;47491;-66
2022/11/10 08:16:20;;;;;;;;;24.25;22.25;;;;;12.82;90.53;100062.13;5032777;28;45442;-66
2022/11/10 08:18:45;;;;;;;;;25.33;24.00;;;;;12.84;90.68;100068.22;5035249;28;45439;-66
2022/11/10 08:21:10;;;;;;;;;22.75;19.00;;;;;12.84;90.31;100068.22;5035741;28;45476;-66
2022/11/10 08:23:36;;;;;;;;;13.50;12.50;;;;;12.86;90.39;100066.41;5034767;28;45448;-66
2022/11/10 08:26:01;;;;;;;;;24.33;21.67;;;;;12.88;90.18;100072.50;5030112;28;45549;-66
2022/11/10 08:28:27;;;;;;;;;27.67;24.67;;;;;12.91;90.49;100069.72;5035905;28;45315;-66
2022/11/10 08:30:52;;;;;;;;;22.75;21.75;;;;;12.96;90.51;100067.81;5036190;28;45472;-66
2022/11/10 08:33:19;;;;;;;;;23.33;22.33;;;;;13.05;90.43;100067.50;5037585;28;46315;-66
2022/11/10 08:35:47;;;;;;;;;24.33;23.00;;;;;13.12;90.42;100068.13;5037149;28;45400;-65
2022/11/10 08:38:17;;;;;;;;;24.25;22.75;;;;;13.18;89.73;100074.13;5034624;28;45456;-65
2022/11/10 08:40:43;;;;;;;;;20.00;19.00;;;;;13.22;89.71;100072.22;5032270;28;45466;-66
2022/11/10 08:43:10;;;;;;;;;24.67;23.00;;;;;13.26;89.29;100080.00;5023383;28;46342;-66
2022/11/10 08:45:37;;;;;;;;;19.75;19.75;;;;;13.32;89.63;100075.41;5031184;28;45536;-66
2022/11/10 08:48:05;;;;;;;;;23.75;20.00;;;;;13.36;89.08;100075.25;5035888;28;45499;-66
2022/11/10 08:50:31;;;;;;;;;21.50;20.25;;;;;13.41;88.64;100080.34;5032879;28;45402;-67
2022/11/10 08:52:59;;;;;;;;;25.50;24.00;;;;;13.47;88.40;100082.78;5034111;28;47641;-66
2022/11/10 08:55:25;;;;;;;;;20.50;18.50;;;;;13.49;88.25;100087.13;5031477;28;45508;-66
2022/11/10 08:57:50;;;;;;;;;23.33;23.00;;;;;13.50;87.94;100088.84;5035646;28;45413;-67
2022/11/10 09:00:16;;;;;;;;;10.33;7.67;;;;;13.50;87.92;100080.03;5035596;28;45586;-66
2022/11/10 09:02:42;;;;;;;;;21.50;18.50;;;;;13.52;87.75;100094.97;5035021;28;46423;-65
2022/11/10 09:05:08;;;;;;;;;19.50;18.75;;;;;13.57;87.91;100089.50;5034500;28;45559;-64
2022/11/10 09:07:44;;;;;;;;;22.00;22.00;;;;;13.63;87.74;100090.13;5035422;28;45426;-65
2022/11/10 09:10:11;;;;;;;;;31.25;23.25;;;;;13.67;87.65;100090.88;5023792;28;45440;-66
2022/11/10 09:12:37;;;;;;;;;23.25;20.25;;;;;13.72;87.39;100086.28;5043400;28;46776;-65
2022/11/10 09:15:03;;;;;;;;;29.33;25.00;;;;;13.73;87.08;100084.50;5033777;28;45482;-65
2022/11/10 09:17:28;;;;;;;;;21.75;21.00;;;;;13.70;87.38;100088.13;5030994;28;45503;-65
2022/11/10 09:19:53;;;;;;;;;23.00;21.75;;;;;13.72;86.98;100088.94;5031700;28;45511;-65
2022/11/10 09:22:19;;;;;;;;;20.75;19.00;;;;;13.74;86.99;100095.00;5028816;28;45932;-65
2022/11/10 09:24:44;;;;;;;;;23.25;22.25;;;;;13.77;86.93;100096.69;5033249;28;45493;-66
2022/11/10 09:27:10;;;;;;;;;21.75;18.25;;;;;13.77;86.42;100105.50;5029226;28;45489;-66
2022/11/10 09:29:35;;;;;;;;;20.25;18.25;;;;;13.79;86.90;100116.03;5033627;28;45592;-66
2022/11/10 09:32:01;;;;;;;;;26.50;21.25;;;;;13.82;86.30;100114.16;5030561;28;45483;-66
2022/11/10 09:34:26;;;;;;;;;20.75;19.25;;;;;13.86;86.10;100110.47;5045316;28;45377;-65
2022/11/10 09:36:51;;;;;;;;;31.00;25.67;;;;;13.90;86.00;100122.69;5032942;28;46079;-66
2022/11/10 09:39:17;;;;;;;;;27.67;25.00;;;;;13.93;85.72;100130.50;5034727;28;45563;-65
2022/11/10 09:41:43;;;;;;;;;21.25;19.50;;;;;13.97;85.65;100126.81;5032404;28;47291;-65
2022/11/10 09:44:11;;;;;;;;;25.25;23.50;;;;;13.98;85.48;100135.66;5034492;28;45430;-66
2022/11/10 09:46:41;;;;;;;;;24.67;21.00;;;;;14.01;85.32;100151.44;5033461;28;45403;-66
2022/11/10 09:49:28;;;;;;;;;21.00;21.00;;;;;14.02;85.35;100149.66;5020335;28;45490;-67
2022/11/10 09:51:59;;;;;;;;;24.25;22.25;;;;;14.02;85.09;100147.88;5033140;28;45701;-66
2022/11/10 09:54:50;;;;;;;;;20.75;20.25;;;;;14.04;85.10;100153.13;5032366;28;45483;-65
2022/11/10 09:57:23;;;;;;;;;25.00;22.25;;;;;14.06;84.92;100148.63;5031590;28;45393;-65
2022/11/10 09:59:49;;;;;;;;;25.25;20.75;;;;;14.10;85.14;100147.56;5029518;28;45481;-65
2022/11/10 10:02:39;;;;;;;;;17.25;17.25;;;;;14.14;85.36;100154.50;5030466;28;45324;-65
2022/11/10 10:05:14;;;;;;;;;22.25;18.00;;;;;14.16;85.44;100150.84;5031455;28;45629;-65
2022/11/10 10:07:55;;;;;;;;;22.75;22.50;;;;;14.20;85.21;100148.97;5033007;28;45503;-66
2022/11/10 10:10:43;;;;;;;;;25.25;20.75;;;;;14.24;85.04;100158.53;5031815;28;45391;-65
2022/11/10 10:13:17;;;;;;;;;18.00;17.25;;;;;14.24;85.03;100154.06;5031064;28;45400;-65
2022/11/10 10:16:12;;;;;;;;;30.67;25.00;;;;;14.24;84.39;100148.75;5027667;28;45429;-65
2022/11/10 10:18:53;;;;;;;;;20.00;19.75;;;;;14.28;84.85;100146.84;5033985;28;45447;-65
2022/11/10 10:21:40;;;;;;;;;18.50;18.50;;;;;14.30;84.46;100147.66;5025105;28;45374;-65
2022/11/10 10:24:11;;;;;;;;;22.75;22.00;;;;;14.35;84.57;100152.81;5033205;28;45397;-66
2022/11/10 10:26:40;;;;;;;;;23.25;21.50;;;;;14.41;84.15;100149.97;5026106;28;45485;-66
2022/11/10 10:29:16;;;;;;;;;28.00;26.33;;;;;14.48;83.92;100140.81;5034291;28;45530;-66
2022/11/10 10:31:47;;;;;;;;;23.67;23.33;;;;;14.54;83.58;100143.22;5031428;28;45317;-65
2022/11/10 10:34:22;;;;;;;;;24.00;22.25;;;;;14.62;83.59;100147.28;5041137;28;46168;-66
2022/11/10 10:36:47;;;;;;;;;26.75;22.75;;;;;14.73;83.44;100146.00;5037677;28;45410;-66
2022/11/10 10:39:26;;;;;;;;;21.75;20.50;;;;;14.82;83.52;100150.94;5049062;28;45485;-66
2022/11/10 10:41:52;;;;;;;;;23.67;22.67;;;;;14.88;82.92;100151.56;5031931;28;45368;-66
2022/11/10 10:44:18;;;;;;;;;23.50;21.25;;;;;14.96;82.29;100160.06;5033555;28;45397;-66
2022/11/10 10:46:57;;;;;;;;;20.75;19.50;;;;;15.01;82.11;100166.06;5028443;28;45374;-65
2022/11/10 10:49:28;;;;;;;;;22.75;19.50;;;;;15.07;82.03;100161.41;5040673;28;45440;-66
2022/11/10 10:52:05;;;;;;;;;24.00;23.00;;;;;15.13;81.72;100166.44;5029489;28;45428;-65
2022/11/10 10:54:34;;;;;;;;;22.75;20.50;;;;;15.19;81.27;100163.56;5024695;28;46142;-65
2022/11/10 10:57:04;;;;;;;;;21.25;20.00;;;;;15.25;81.02;100165.94;5030636;28;45447;-66
2022/11/10 10:59:30;;;;;;;;;17.75;17.75;;;;;15.30;80.81;100169.25;5032249;28;45313;-66
2022/11/10 11:01:55;;;;;;;;;22.25;21.25;;;;;15.36;80.56;100171.66;5031808;28;45398;-66
2022/11/10 11:04:31;;;;;;;;;16.75;16.75;;;;;15.43;80.44;100177.56;5031546;28;48442;-65
2022/11/10 11:07:03;;;;;;;;;17.25;14.75;;;;;15.49;80.00;100180.84;5034696;28;45496;-65
2022/11/10 11:09:55;;;;;;;;;20.00;17.25;;;;;15.57;79.97;100161.94;5023129;28;45489;-67
2022/11/10 11:12:20;;;;;;;;;16.50;13.00;;;;;15.64;79.62;100174.00;5044712;28;45425;-66
2022/11/10 11:14:46;;;;;;;;;23.00;21.75;;;;;15.69;79.39;100167.56;5030637;28;45575;-66
2022/11/10 11:17:18;;;;;;;;;23.75;22.25;;;;;15.77;79.25;100171.66;5023984;28;45428;-68
2022/11/10 11:19:43;;;;;;;;;15.50;15.25;;;;;15.82;78.87;100169.69;5031141;28;45428;-66
2022/11/10 11:22:34;;;;;;;;;14.00;10.75;;;;;15.88;78.27;100164.09;5025337;28;45485;-67
2022/11/10 11:25:05;;;;;;;;;13.00;13.00;;;;;15.94;77.60;100161.13;5038909;28;47621;-66
2022/11/10 11:28:09;;;;;;;;;19.00;17.25;;;;;16.02;77.29;100161.66;5041710;28;45318;-66
2022/11/10 11:31:09;;;;;;;;;16.00;15.00;;;;;16.10;76.96;100153.31;5027380;28;45414;-66